Time;durP1;ratioP1;P1;durP2;ratioP2;P2;SDS_P1;SDS_P2;PMS_P1;PMS_P2;Temp;Humidity;BMP_temperature;BMP_pressure;BME280_temperature;BME280_humidity;BME280_pressure;Samples;Min_cycle;Max_cycle;Signal;HPM_P1;HPM_P2
2023/11/13 00:02:04;;;;;;;;;;;5.60;99.90;;;;;;8347508;28;19929;-71
2023/11/13 00:06:06;;;;;;;;;;;5.60;99.90;;;;;;8345435;28;20368;-71
2023/11/13 00:10:08;;;;;;;;;;;5.50;99.90;;;;;;8347855;28;19933;-71
2023/11/13 00:14:10;;;;;;;;;;;5.60;99.90;;;;;;8347895;28;20075;-71
2023/11/13 00:18:12;;;;;;;;;;;5.60;99.90;;;;;;8347310;28;19940;-72
2023/11/13 00:22:13;;;;;;;;;;;5.60;99.90;;;;;;8357240;28;19925;-71
2023/11/13 00:26:15;;;;;;;;;;;5.60;99.90;;;;;;8359041;28;20452;-72
2023/11/13 00:30:17;;;;;;;;;;;5.60;99.90;;;;;;8346753;28;19929;-71
2023/11/13 00:44:26;;;;;;;;;;;5.60;99.90;;;;;;8345432;28;19974;-71
2023/11/13 00:48:28;;;;;;;;;;;5.60;99.90;;;;;;8347790;28;20380;-71
2023/11/13 00:52:30;;;;;;;;;;;5.50;99.90;;;;;;8344433;28;19944;-71
2023/11/13 00:56:31;;;;;;;;;;;5.50;99.90;;;;;;8348366;28;20446;-72
2023/11/13 01:00:34;;;;;;;;;;;5.50;99.90;;;;;;8349155;28;19979;-71
2023/11/13 01:04:35;;;;;;;;;;;5.50;99.90;;;;;;8346315;28;20660;-71
2023/11/13 01:08:37;;;;;;;;;;;5.50;99.90;;;;;;8354748;28;19925;-72
2023/11/13 01:12:39;;;;;;;;;;;5.50;99.90;;;;;;8355849;28;20288;-71
2023/11/13 01:16:41;;;;;;;;;;;5.50;99.90;;;;;;8351219;28;19926;-71
2023/11/13 01:20:44;;;;;;;;;;;5.50;99.90;;;;;;8354760;28;19925;-71
2023/11/13 01:24:45;;;;;;;;;;;5.50;99.90;;;;;;8357771;28;19932;-71
2023/11/13 01:28:47;;;;;;;;;;;5.50;99.90;;;;;;8357730;28;19936;-71
2023/11/13 01:32:49;;;;;;;;;;;5.40;99.90;;;;;;8354822;28;19925;-71
2023/11/13 01:36:50;;;;;;;;;;;5.50;99.90;;;;;;8357568;28;19976;-71
2023/11/13 01:40:52;;;;;;;;;;;5.50;99.90;;;;;;8354483;28;19925;-71
2023/11/13 01:44:55;;;;;;;;;;;5.50;99.90;;;;;;8356349;28;20027;-71
2023/11/13 01:48:58;;;;;;;;;;;5.50;99.90;;;;;;8356726;28;19928;-72
2023/11/13 01:53:00;;;;;;;;;;;5.50;99.90;;;;;;8353133;28;19931;-71
2023/11/13 01:57:03;;;;;;;;;;;5.50;99.90;;;;;;8355664;28;19951;-71
2023/11/13 02:01:05;;;;;;;;;;;5.50;99.90;;;;;;8336370;28;19933;-71
2023/11/13 02:05:07;;;;;;;;;;;5.60;99.90;;;;;;8353047;28;19983;-71
2023/11/13 02:09:12;;;;;;;;;;;5.60;99.90;;;;;;8355232;28;19929;-71
2023/11/13 02:13:14;;;;;;;;;;;5.60;99.90;;;;;;8334676;28;19924;-71
2023/11/13 02:17:16;;;;;;;;;;;5.60;99.90;;;;;;8349139;28;20002;-71
2023/11/13 02:21:18;;;;;;;;;;;5.60;99.90;;;;;;8360814;28;19970;-71
2023/11/13 02:25:22;;;;;;;;;;;5.60;99.90;;;;;;8353130;28;20449;-71
2023/11/13 02:29:23;;;;;;;;;;;5.70;99.90;;;;;;8352750;28;19970;-71
2023/11/13 02:33:25;;;;;;;;;;;5.70;99.90;;;;;;8353846;28;19951;-71
2023/11/13 02:37:27;;;;;;;;;;;5.70;99.90;;;;;;8350039;28;19998;-71
2023/11/13 02:41:28;;;;;;;;;;;5.70;99.90;;;;;;8337381;28;19929;-71
2023/11/13 02:45:30;;;;;;;;;;;5.70;99.90;;;;;;8353648;28;19978;-71
2023/11/13 02:49:32;;;;;;;;;;;5.70;99.90;;;;;;8355991;28;19929;-71
2023/11/13 02:53:33;;;;;;;;;;;5.70;99.90;;;;;;8352130;28;19948;-71
2023/11/13 02:57:36;;;;;;;;;;;5.70;99.90;;;;;;8356480;28;19951;-71
2023/11/13 03:01:38;;;;;;;;;;;5.70;99.90;;;;;;8352747;28;19925;-71
2023/11/13 03:05:40;;;;;;;;;;;5.80;99.90;;;;;;8354710;28;19975;-71
2023/11/13 03:09:41;;;;;;;;;;;5.80;99.90;;;;;;8354168;28;21143;-71
2023/11/13 03:23:56;;;;;;;;;;;5.90;99.90;;;;;;8345547;28;19949;-71
2023/11/13 03:27:58;;;;;;;;;;;5.90;99.90;;;;;;8346147;28;19925;-71
2023/11/13 03:32:00;;;;;;;;;;;6.00;99.90;;;;;;8359464;28;20358;-72
2023/11/13 03:36:02;;;;;;;;;;;6.00;99.90;;;;;;8358513;28;20364;-71
2023/11/13 03:40:06;;;;;;;;;;;6.00;99.90;;;;;;8360132;28;19936;-71
2023/11/13 03:44:08;;;;;;;;;;;6.00;99.90;;;;;;8357232;28;19928;-70
2023/11/13 03:48:10;;;;;;;;;;;6.10;99.90;;;;;;8358059;28;20292;-71
2023/11/13 03:52:13;;;;;;;;;;;6.10;99.90;;;;;;8358880;28;19924;-71
2023/11/13 03:56:15;;;;;;;;;;;6.10;99.90;;;;;;8359139;28;19929;-71
2023/11/13 04:00:18;;;;;;;;;;;6.10;99.90;;;;;;8351266;28;19933;-71
2023/11/13 04:04:19;;;;;;;;;;;6.10;99.90;;;;;;8357482;28;19936;-71
2023/11/13 04:08:21;;;;;;;;;;;6.10;99.90;;;;;;8351082;28;20372;-71
2023/11/13 04:12:23;;;;;;;;;;;6.20;99.90;;;;;;8342961;28;19925;-72
2023/11/13 04:16:24;;;;;;;;;;;6.20;99.90;;;;;;8350620;28;19932;-71
2023/11/13 04:20:26;;;;;;;;;;;6.20;99.90;;;;;;8355980;28;19925;-72
2023/11/13 04:24:28;;;;;;;;;;;6.20;99.90;;;;;;8342127;28;19932;-71
2023/11/13 04:28:32;;;;;;;;;;;6.30;99.90;;;;;;8354740;28;19940;-72
2023/11/13 04:32:36;;;;;;;;;;;6.30;99.90;;;;;;8358883;28;19944;-71
2023/11/13 04:36:41;;;;;;;;;;;6.40;99.90;;;;;;8357861;28;19925;-71
2023/11/13 04:40:44;;;;;;;;;;;6.40;99.90;;;;;;8352103;28;20277;-71
2023/11/13 04:44:46;;;;;;;;;;;6.40;99.90;;;;;;8353965;28;19940;-71
2023/11/13 04:48:48;;;;;;;;;;;6.50;99.90;;;;;;8355760;28;20017;-71
2023/11/13 04:52:49;;;;;;;;;;;6.50;99.90;;;;;;8355590;28;19925;-72
2023/11/13 04:56:51;;;;;;;;;;;6.50;99.90;;;;;;8356672;28;19928;-71
2023/11/13 05:00:53;;;;;;;;;;;6.50;99.90;;;;;;8350710;28;19925;-72
2023/11/13 05:04:55;;;;;;;;;;;6.50;99.90;;;;;;8352885;28;19925;-71
2023/11/13 05:08:57;;;;;;;;;;;6.50;99.90;;;;;;8357412;28;19924;-71
2023/11/13 05:12:59;;;;;;;;;;;6.50;99.90;;;;;;8340088;28;19925;-71
2023/11/13 05:17:02;;;;;;;;;;;6.50;99.90;;;;;;8356562;28;19932;-71
2023/11/13 05:21:04;;;;;;;;;;;6.50;99.90;;;;;;8355430;28;19931;-71
2023/11/13 05:25:05;;;;;;;;;;;6.50;99.90;;;;;;8356529;28;19929;-71
2023/11/13 05:29:07;;;;;;;;;;;6.50;99.90;;;;;;8369367;28;20003;-71
2023/11/13 05:33:09;;;;;;;;;;;6.50;99.90;;;;;;8350424;28;19928;-71
2023/11/13 05:37:12;;;;;;;;;;;6.60;99.90;;;;;;8357320;28;19929;-71
2023/11/13 05:41:14;;;;;;;;;;;6.60;99.90;;;;;;8354911;28;19971;-71
2023/11/13 05:45:15;;;;;;;;;;;6.60;99.90;;;;;;8358037;28;19925;-71
2023/11/13 05:49:17;;;;;;;;;;;6.60;99.90;;;;;;8356908;28;19924;-71
2023/11/13 05:53:19;;;;;;;;;;;6.60;99.90;;;;;;8353447;28;19925;-72
2023/11/13 05:57:21;;;;;;;;;;;6.60;99.90;;;;;;8355744;28;19999;-71
2023/11/13 06:01:22;;;;;;;;;;;6.60;99.90;;;;;;8350659;28;19924;-71
2023/11/13 06:05:24;;;;;;;;;;;6.70;99.90;;;;;;8349947;28;19937;-71
2023/11/13 06:09:26;;;;;;;;;;;6.70;99.90;;;;;;8344592;28;19932;-71
2023/11/13 06:13:29;;;;;;;;;;;6.70;99.90;;;;;;8343480;28;19924;-71
2023/11/13 06:17:30;;;;;;;;;;;6.80;99.90;;;;;;8352965;28;19925;-71
2023/11/13 06:21:33;;;;;;;;;;;6.80;99.90;;;;;;8352161;28;19975;-71
2023/11/13 06:25:35;;;;;;;;;;;6.80;99.90;;;;;;8352048;28;19940;-71
2023/11/13 06:29:37;;;;;;;;;;;6.80;99.90;;;;;;8344018;28;20008;-71
2023/11/13 06:33:38;;;;;;;;;;;6.80;99.90;;;;;;8352600;28;19925;-71
2023/11/13 06:37:41;;;;;;;;;;;6.90;99.90;;;;;;8354950;28;19937;-71
2023/11/13 06:41:44;;;;;;;;;;;6.90;99.90;;;;;;8354644;28;19991;-71
2023/11/13 06:45:45;;;;;;;;;;;6.90;99.90;;;;;;8345066;28;19928;-71
2023/11/13 06:49:47;;;;;;;;;;;6.90;99.90;;;;;;8353491;28;19936;-71
2023/11/13 06:53:48;;;;;;;;;;;7.00;99.90;;;;;;8347918;28;20364;-71
2023/11/13 06:57:52;;;;;;;;;;;7.00;99.90;;;;;;8354494;28;20143;-71
2023/11/13 07:01:55;;;;;;;;;;;7.00;99.90;;;;;;8361546;28;19944;-72
2023/11/13 07:05:57;;;;;;;;;;;7.00;99.90;;;;;;8345950;28;19935;-71
2023/11/13 07:10:01;;;;;;;;;;;7.10;99.90;;;;;;8359388;28;19932;-71
2023/11/13 07:14:03;;;;;;;;;;;7.10;99.90;;;;;;8361425;28;19986;-71
2023/11/13 07:18:06;;;;;;;;;;;7.10;99.90;;;;;;8362237;28;19929;-71
2023/11/13 07:22:08;;;;;;;;;;;7.20;99.90;;;;;;8359819;28;19929;-71
2023/11/13 07:26:09;;;;;;;;;;;7.20;99.90;;;;;;8350748;28;19980;-71
2023/11/13 07:30:11;;;;;;;;;;;7.30;99.90;;;;;;8352168;28;19971;-71
2023/11/13 07:34:13;;;;;;;;;;;7.30;99.90;;;;;;8346144;28;19925;-71
2023/11/13 07:38:14;;;;;;;;;;;7.40;99.90;;;;;;8354935;28;19931;-71
2023/11/13 07:42:16;;;;;;;;;;;7.40;99.90;;;;;;8355603;28;19925;-71
2023/11/13 07:46:18;;;;;;;;;;;7.50;99.90;;;;;;8351190;28;19925;-72
2023/11/13 07:50:21;;;;;;;;;;;7.60;99.90;;;;;;8357939;28;20315;-72
2023/11/13 07:54:22;;;;;;;;;;;7.60;99.90;;;;;;8361933;28;19928;-71
2023/11/13 07:58:25;;;;;;;;;;;7.70;99.90;;;;;;8357880;28;19924;-71
2023/11/13 08:02:27;;;;;;;;;;;7.80;99.90;;;;;;8348683;28;19924;-72
2023/11/13 08:06:29;;;;;;;;;;;7.80;99.90;;;;;;8358541;28;19978;-71
2023/11/13 08:10:32;;;;;;;;;;;7.90;99.90;;;;;;8349860;28;19925;-71
2023/11/13 08:14:34;;;;;;;;;;;8.00;99.90;;;;;;8342434;28;19925;-71
2023/11/13 08:18:35;;;;;;;;;;;8.10;99.90;;;;;;8359288;28;19975;-71
2023/11/13 08:22:38;;;;;;;;;;;8.10;99.90;;;;;;8356882;28;19925;-71
2023/11/13 08:26:40;;;;;;;;;;;8.20;99.90;;;;;;8360821;28;19954;-71
2023/11/13 08:30:43;;;;;;;;;;;8.20;99.90;;;;;;8350353;28;19928;-72
2023/11/13 08:34:45;;;;;;;;;;;8.30;99.90;;;;;;8359394;28;19925;-71
2023/11/13 08:38:47;;;;;;;;;;;8.40;99.90;;;;;;8359895;28;19928;-72
2023/11/13 08:42:49;;;;;;;;;;;8.50;99.90;;;;;;8356960;28;19925;-71
2023/11/13 08:46:51;;;;;;;;;;;8.60;99.90;;;;;;8359686;28;20313;-71
2023/11/13 08:50:53;;;;;;;;;;;8.60;99.90;;;;;;8357555;28;19963;-71
2023/11/13 08:54:55;;;;;;;;;;;8.70;99.90;;;;;;8357165;28;19931;-71
2023/11/13 08:58:58;;;;;;;;;;;8.80;99.90;;;;;;8360408;28;19925;-71
2023/11/13 09:03:00;;;;;;;;;;;8.90;99.90;;;;;;8353949;28;19931;-72
2023/11/13 09:07:07;;;;;;;;;;;9.00;99.90;;;;;;8358464;28;19925;-71
2023/11/13 09:11:14;;;;;;;;;;;9.10;99.90;;;;;;8356050;28;19924;-71
2023/11/13 09:15:17;;;;;;;;;;;9.20;99.90;;;;;;8353970;28;19931;-71
2023/11/13 09:19:19;;;;;;;;;;;9.40;99.90;;;;;;8359082;28;19925;-71
2023/11/13 09:23:21;;;;;;;;;;;9.50;99.90;;;;;;8356142;28;19951;-71
2023/11/13 09:27:23;;;;;;;;;;;9.60;99.90;;;;;;8356749;28;19929;-71
2023/11/13 09:31:25;;;;;;;;;;;9.70;99.90;;;;;;8356966;28;19925;-71
2023/11/13 09:35:29;;;;;;;;;;;9.70;99.90;;;;;;8350928;28;20433;-71
2023/11/13 09:39:39;;;;;;;;;;;9.80;99.90;;;;;;8356165;28;19924;-71
2023/11/13 09:43:40;;;;;;;;;;;9.90;99.90;;;;;;8355398;28;19960;-70
2023/11/13 09:47:43;;;;;;;;;;;9.90;99.90;;;;;;8354745;28;20257;-71
2023/11/13 09:51:47;;;;;;;;;;;9.90;99.90;;;;;;8357033;28;19974;-71
2023/11/13 09:55:50;;;;;;;;;;;10.00;99.90;;;;;;8355837;28;19943;-71
2023/11/13 09:59:52;;;;;;;;;;;10.10;99.90;;;;;;8358395;28;19932;-71
2023/11/13 10:03:55;;;;;;;;;;;10.00;99.90;;;;;;8355340;28;19925;-71
2023/11/13 10:07:57;;;;;;;;;;;10.00;99.90;;;;;;8355935;28;19970;-71
2023/11/13 10:11:59;;;;;;;;;;;10.10;99.90;;;;;;8356228;28;19925;-71
2023/11/13 10:16:21;;;;;;;;;;;10.10;99.90;;;;;;8352323;28;19979;-71
2023/11/13 10:20:23;;;;;;;;;;;10.00;99.90;;;;;;8352889;28;19925;-71
2023/11/13 10:24:25;;;;;;;;;;;10.10;99.90;;;;;;8354839;28;19951;-71
2023/11/13 10:28:37;;;;;;;;;;;10.10;99.90;;;;;;8352903;28;19931;-71
2023/11/13 10:32:39;;;;;;;;;;;10.10;99.90;;;;;;8355285;28;19939;-71
2023/11/13 10:36:41;;;;;;;;;;;10.10;99.90;;;;;;8358969;28;19955;-72
2023/11/13 10:40:51;;;;;;;;;;;10.10;99.90;;;;;;8358023;28;19925;-71
2023/11/13 10:44:57;;;;;;;;;;;10.10;99.90;;;;;;8361584;28;19925;-72
2023/11/13 10:48:59;;;;;;;;;;;10.20;99.90;;;;;;8360840;28;20265;-71
2023/11/13 10:53:03;;;;;;;;;;;10.20;99.90;;;;;;8363667;28;19928;-71
2023/11/13 10:57:08;;;;;;;;;;;10.20;99.90;;;;;;8360700;28;19935;-71
2023/11/13 11:01:17;;;;;;;;;;;10.20;99.90;;;;;;8367324;28;19931;-72
2023/11/13 11:05:22;;;;;;;;;;;10.20;99.90;;;;;;8361014;28;19932;-71
2023/11/13 11:09:25;;;;;;;;;;;10.30;99.90;;;;;;8359204;28;19925;-71
2023/11/13 11:13:27;;;;;;;;;;;10.30;99.90;;;;;;8361022;28;19931;-72
2023/11/13 11:17:33;;;;;;;;;;;10.30;99.90;;;;;;8354390;28;19925;-71
2023/11/13 11:21:46;;;;;;;;;;;10.30;99.90;;;;;;8357082;28;19944;-70
2023/11/13 11:25:50;;;;;;;;;;;10.30;99.90;;;;;;8362569;28;19932;-71
2023/11/13 11:29:52;;;;;;;;;;;10.40;99.90;;;;;;8357160;28;20291;-71
2023/11/13 11:33:56;;;;;;;;;;;10.40;99.90;;;;;;8361965;28;19932;-71
2023/11/13 11:38:18;;;;;;;;;;;10.50;99.90;;;;;;8359861;28;19925;-72
2023/11/13 11:42:20;;;;;;;;;;;10.50;99.90;;;;;;8337519;28;19990;-71
2023/11/13 11:46:22;;;;;;;;;;;10.60;99.90;;;;;;8356014;28;19928;-70
2023/11/13 11:50:24;;;;;;;;;;;10.60;99.90;;;;;;8356254;28;20483;-71
2023/11/13 11:54:26;;;;;;;;;;;10.70;99.90;;;;;;8360398;28;19964;-70
2023/11/13 11:58:28;;;;;;;;;;;10.80;99.90;;;;;;8359644;28;19982;-71
2023/11/13 12:02:30;;;;;;;;;;;10.90;99.90;;;;;;8356934;28;19970;-71
2023/11/13 12:06:33;;;;;;;;;;;11.00;99.90;;;;;;8361357;28;20300;-71
2023/11/13 12:10:35;;;;;;;;;;;11.10;99.90;;;;;;8342822;28;19929;-71
2023/11/13 12:14:37;;;;;;;;;;;11.20;99.90;;;;;;8361700;28;19925;-71
2023/11/13 12:18:39;;;;;;;;;;;11.40;99.90;;;;;;8359540;28;19959;-71
2023/11/13 12:22:41;;;;;;;;;;;11.50;99.90;;;;;;8357299;28;19990;-71
2023/11/13 12:26:46;;;;;;;;;;;11.60;99.90;;;;;;8361115;28;19964;-71
2023/11/13 12:30:48;;;;;;;;;;;11.90;99.90;;;;;;8341112;28;19933;-71
2023/11/13 12:34:50;;;;;;;;;;;12.00;99.90;;;;;;8345160;28;20392;-71
2023/11/13 12:38:51;;;;;;;;;;;12.20;99.90;;;;;;8360767;28;19924;-71
2023/11/13 12:42:53;;;;;;;;;;;12.40;99.90;;;;;;8358112;28;19978;-71
2023/11/13 12:46:56;;;;;;;;;;;12.50;99.90;;;;;;8361004;28;20292;-71
2023/11/13 12:51:00;;;;;;;;;;;12.70;99.90;;;;;;8357062;28;19935;-71
2023/11/13 12:55:02;;;;;;;;;;;12.80;99.90;;;;;;8354762;28;19929;-71
2023/11/13 12:59:05;;;;;;;;;;;12.90;99.90;;;;;;8358380;28;19932;-72
2023/11/13 13:03:11;;;;;;;;;;;13.10;99.90;;;;;;8354480;28;19925;-71
2023/11/13 13:07:13;;;;;;;;;;;13.20;99.90;;;;;;8358202;28;19932;-71
2023/11/13 13:11:15;;;;;;;;;;;13.30;99.90;;;;;;8344093;28;19940;-71
2023/11/13 13:15:16;;;;;;;;;;;13.50;99.90;;;;;;8354345;28;19929;-71
2023/11/13 13:19:20;;;;;;;;;;;13.60;99.90;;;;;;8356587;28;19972;-71
2023/11/13 13:23:22;;;;;;;;;;;13.70;99.90;;;;;;8355884;28;20315;-71
2023/11/13 13:27:24;;;;;;;;;;;13.80;99.90;;;;;;8358600;28;20010;-71
2023/11/13 13:31:30;;;;;;;;;;;14.00;99.90;;;;;;8357973;28;20577;-71
2023/11/13 13:35:32;;;;;;;;;;;14.20;99.90;;;;;;8353373;28;19939;-71
2023/11/13 13:39:35;;;;;;;;;;;14.30;99.90;;;;;;8354307;28;19924;-71
2023/11/13 13:43:41;;;;;;;;;;;14.40;99.90;;;;;;8367398;28;20376;-71
2023/11/13 13:47:46;;;;;;;;;;;14.40;99.90;;;;;;8352703;28;20419;-71
2023/11/13 13:51:48;;;;;;;;;;;14.50;99.90;;;;;;8358967;28;19925;-71
2023/11/13 13:55:49;;;;;;;;;;;14.60;99.90;;;;;;8355266;28;19932;-71
2023/11/13 13:59:51;;;;;;;;;;;14.70;99.90;;;;;;8352859;28;19972;-71
2023/11/13 14:03:54;;;;;;;;;;;14.70;99.90;;;;;;8355920;28;20381;-71
2023/11/13 14:07:57;;;;;;;;;;;14.80;99.90;;;;;;8353770;28;19925;-71
2023/11/13 14:11:58;;;;;;;;;;;14.90;99.90;;;;;;8356996;28;19948;-71
2023/11/13 14:16:09;;;;;;;;;;;14.90;99.90;;;;;;8340753;28;20532;-71
2023/11/13 14:20:15;;;;;;;;;;;14.90;99.90;;;;;;8354839;28;20015;-71
2023/11/13 14:24:18;;;;;;;;;;;14.90;99.90;;;;;;8357120;28;19928;-72
2023/11/13 14:28:22;;;;;;;;;;;14.90;99.90;;;;;;8367083;28;19925;-71
2023/11/13 14:32:24;;;;;;;;;;;14.90;99.90;;;;;;8353813;28;19932;-71
2023/11/13 14:36:27;;;;;;;;;;;15.10;99.90;;;;;;8355196;28;19976;-70
2023/11/13 14:40:30;;;;;;;;;;;15.30;99.90;;;;;;8333990;28;19960;-71
2023/11/13 14:44:31;;;;;;;;;;;15.50;99.90;;;;;;8359791;28;19931;-71
2023/11/13 14:48:33;;;;;;;;;;;15.40;99.90;;;;;;8354333;28;19936;-72
2023/11/13 14:52:38;;;;;;;;;;;15.30;99.90;;;;;;8356528;28;19929;-72
2023/11/13 14:56:40;;;;;;;;;;;15.10;99.90;;;;;;8356814;28;20316;-71
2023/11/13 15:00:42;;;;;;;;;;;15.00;99.90;;;;;;8351623;28;20676;-71
2023/11/13 15:04:44;;;;;;;;;;;14.90;99.90;;;;;;8355143;28;19929;-71
2023/11/13 15:08:46;;;;;;;;;;;14.90;99.90;;;;;;8351583;28;19964;-71
2023/11/13 15:12:47;;;;;;;;;;;14.90;99.90;;;;;;8351566;28;19952;-71
2023/11/13 15:16:49;;;;;;;;;;;14.80;99.90;;;;;;8348665;28;19925;-71
2023/11/13 15:20:51;;;;;;;;;;;14.80;99.90;;;;;;8352133;28;19933;-71
2023/11/13 15:24:52;;;;;;;;;;;14.70;99.90;;;;;;8358554;28;19933;-71
2023/11/13 15:28:55;;;;;;;;;;;14.70;99.90;;;;;;8370717;28;19928;-72
2023/11/13 15:33:03;;;;;;;;;;;14.50;99.90;;;;;;8352406;28;19987;-71
2023/11/13 15:37:08;;;;;;;;;;;14.40;99.90;;;;;;8361511;28;19928;-71
2023/11/13 15:41:10;;;;;;;;;;;14.30;99.90;;;;;;8358773;28;19925;-71
2023/11/13 15:45:12;;;;;;;;;;;14.30;99.90;;;;;;8369279;28;19925;-71
2023/11/13 15:49:14;;;;;;;;;;;14.30;99.90;;;;;;8361377;28;19965;-71
2023/11/13 15:53:16;;;;;;;;;;;14.20;99.90;;;;;;8361984;28;19955;-71
2023/11/13 15:57:17;;;;;;;;;;;14.00;99.90;;;;;;8352624;28;19937;-71
2023/11/13 16:01:19;;;;;;;;;;;14.00;99.90;;;;;;8358224;28;19951;-71
2023/11/13 16:05:21;;;;;;;;;;;13.90;99.90;;;;;;8356893;28;19947;-71
2023/11/13 16:09:23;;;;;;;;;;;13.80;99.90;;;;;;8354495;28;20335;-71
2023/11/13 16:13:30;;;;;;;;;;;13.80;99.90;;;;;;8333357;28;20346;-71
2023/11/13 16:17:32;;;;;;;;;;;13.80;99.90;;;;;;8357162;28;19925;-71
2023/11/13 16:21:34;;;;;;;;;;;13.70;99.90;;;;;;8358792;28;20336;-71
2023/11/13 16:25:36;;;;;;;;;;;13.60;99.90;;;;;;8354737;28;19937;-71
2023/11/13 16:29:38;;;;;;;;;;;13.50;99.90;;;;;;8358449;28;19929;-71
2023/11/13 16:33:40;;;;;;;;;;;13.50;99.90;;;;;;8358432;28;20403;-71
2023/11/13 16:37:41;;;;;;;;;;;13.50;99.90;;;;;;8353646;28;19933;-71
2023/11/13 16:41:43;;;;;;;;;;;13.40;99.90;;;;;;8349718;28;19978;-71
2023/11/13 16:45:45;;;;;;;;;;;13.40;99.90;;;;;;8350267;28;19939;-71
2023/11/13 16:49:47;;;;;;;;;;;13.30;99.90;;;;;;8345776;28;19929;-71
2023/11/13 16:53:48;;;;;;;;;;;13.20;99.90;;;;;;8345842;28;19982;-71
2023/11/13 16:57:50;;;;;;;;;;;13.10;99.90;;;;;;8346995;28;19936;-70
2023/11/13 17:01:52;;;;;;;;;;;13.10;99.90;;;;;;8344924;28;20348;-71
2023/11/13 17:05:56;;;;;;;;;;;13.10;99.90;;;;;;8347066;28;19991;-71
2023/11/13 17:09:58;;;;;;;;;;;13.10;99.90;;;;;;8348731;28;19933;-71
2023/11/13 17:14:00;;;;;;;;;;;13.00;99.90;;;;;;8344758;28;19971;-71
2023/11/13 17:18:02;;;;;;;;;;;13.00;99.90;;;;;;8346190;28;19932;-71
2023/11/13 17:22:05;;;;;;;;;;;12.90;99.90;;;;;;8348175;28;19932;-71
2023/11/13 17:26:08;;;;;;;;;;;12.90;99.90;;;;;;8344091;28;19924;-71
2023/11/13 18:00:45;;;;;;;;;;;12.60;99.90;;;;;;8336649;28;19967;-71
2023/11/13 18:04:50;;;;;;;;;;;12.70;99.90;;;;;;8359994;28;20083;-71
2023/11/13 18:08:52;;;;;;;;;;;12.70;99.90;;;;;;8346908;28;20495;-71
2023/11/13 18:12:54;;;;;;;;;;;12.70;99.90;;;;;;8348679;28;20308;-71
2023/11/13 18:16:56;;;;;;;;;;;12.80;99.90;;;;;;8333817;28;19933;-71
2023/11/13 18:20:58;;;;;;;;;;;12.70;99.90;;;;;;8345278;28;19933;-71
2023/11/13 18:25:01;;;;;;;;;;;12.70;99.90;;;;;;8325715;28;19929;-71
2023/11/13 18:29:03;;;;;;;;;;;12.70;99.90;;;;;;8346061;28;19932;-71
2023/11/13 18:33:05;;;;;;;;;;;12.70;99.90;;;;;;8345192;28;20023;-71
2023/11/13 18:37:06;;;;;;;;;;;12.60;99.90;;;;;;8345623;28;19929;-71
2023/11/13 18:41:08;;;;;;;;;;;12.60;99.90;;;;;;8343821;28;19929;-71
2023/11/13 18:45:10;;;;;;;;;;;12.60;99.90;;;;;;8345891;28;19933;-71
2023/11/13 18:49:11;;;;;;;;;;;12.60;99.90;;;;;;8342765;28;19925;-71
2023/11/13 18:53:13;;;;;;;;;;;12.60;99.90;;;;;;8342924;28;19933;-73
2023/11/13 18:57:15;;;;;;;;;;;12.60;99.90;;;;;;8350701;28;19982;-71
2023/11/13 19:01:20;;;;;;;;;;;12.60;99.90;;;;;;8350574;28;20300;-71
2023/11/13 19:05:22;;;;;;;;;;;12.60;99.90;;;;;;8355269;28;20311;-71
2023/11/13 19:09:23;;;;;;;;;;;12.70;99.90;;;;;;8352619;28;20276;-71
2023/11/13 19:13:25;;;;;;;;;;;12.70;99.90;;;;;;8351644;28;20249;-71
2023/11/13 19:17:27;;;;;;;;;;;12.70;99.90;;;;;;8350610;28;20292;-71
2023/11/13 19:21:29;;;;;;;;;;;12.80;99.90;;;;;;8354179;28;20541;-71
2023/11/13 19:25:31;;;;;;;;;;;12.70;99.90;;;;;;8336068;28;19929;-71
2023/11/13 19:29:33;;;;;;;;;;;12.70;99.90;;;;;;8352586;28;19982;-71
2023/11/13 19:33:35;;;;;;;;;;;12.70;99.90;;;;;;8352826;28;19992;-71
2023/11/13 19:37:36;;;;;;;;;;;12.70;99.90;;;;;;8334747;28;20315;-71
2023/11/13 19:41:41;;;;;;;;;;;12.60;99.90;;;;;;8350807;28;19935;-71
2023/11/13 19:45:44;;;;;;;;;;;12.60;99.90;;;;;;8349553;28;19925;-71
2023/11/13 19:49:46;;;;;;;;;;;12.60;99.90;;;;;;8334423;28;20380;-71
2023/11/13 19:53:48;;;;;;;;;;;12.60;99.90;;;;;;8350266;28;19978;-71
2023/11/13 19:57:50;;;;;;;;;;;12.60;99.90;;;;;;8353515;28;19936;-71
2023/11/13 20:01:52;;;;;;;;;;;12.50;99.90;;;;;;8350782;28;19925;-72
2023/11/13 20:05:54;;;;;;;;;;;12.50;99.90;;;;;;8353130;28;19924;-71
2023/11/13 20:09:56;;;;;;;;;;;12.50;99.90;;;;;;8349031;28;19933;-71
2023/11/13 20:13:57;;;;;;;;;;;12.50;99.90;;;;;;8351696;28;19932;-71
2023/11/13 20:17:59;;;;;;;;;;;12.50;99.90;;;;;;8349318;28;19929;-71
2023/11/13 20:22:01;;;;;;;;;;;12.60;99.90;;;;;;8332466;28;19929;-71
2023/11/13 20:26:05;;;;;;;;;;;12.60;99.90;;;;;;8344232;28;19928;-71
2023/11/13 20:30:07;;;;;;;;;;;12.60;99.90;;;;;;8346610;28;19939;-71
2023/11/13 20:34:09;;;;;;;;;;;12.60;99.90;;;;;;8349479;28;20043;-71
2023/11/13 20:38:11;;;;;;;;;;;12.60;99.90;;;;;;8350008;28;19929;-71
2023/11/13 20:42:14;;;;;;;;;;;12.70;99.90;;;;;;8348821;28;19924;-71
2023/11/13 20:46:16;;;;;;;;;;;12.70;99.90;;;;;;8352483;28;19987;-71
2023/11/13 20:50:18;;;;;;;;;;;12.70;99.90;;;;;;8349391;28;19932;-71
2023/11/13 20:54:19;;;;;;;;;;;12.70;99.90;;;;;;8334766;28;20372;-71
2023/11/13 20:58:21;;;;;;;;;;;12.70;99.90;;;;;;8333932;28;20288;-71
2023/11/13 21:02:23;;;;;;;;;;;12.70;99.90;;;;;;8348018;28;19928;-71
2023/11/13 21:06:26;;;;;;;;;;;12.70;99.90;;;;;;8350819;28;19929;-71
2023/11/13 21:10:27;;;;;;;;;;;12.70;99.90;;;;;;8345973;28;19931;-71
2023/11/13 21:14:30;;;;;;;;;;;12.80;99.90;;;;;;8345374;28;20361;-71
2023/11/13 21:18:32;;;;;;;;;;;12.80;99.90;;;;;;8348584;28;19955;-71
2023/11/13 21:22:34;;;;;;;;;;;12.90;99.90;;;;;;8338330;28;19925;-71
2023/11/13 21:26:36;;;;;;;;;;;12.90;99.90;;;;;;8348203;28;19925;-71
2023/11/13 21:30:39;;;;;;;;;;;12.90;99.90;;;;;;8317192;28;20408;-71
2023/11/13 21:34:40;;;;;;;;;;;12.90;99.90;;;;;;8347820;28;20379;-71
2023/11/13 21:38:44;;;;;;;;;;;12.90;99.90;;;;;;8350656;28;19932;-71
2023/11/13 21:42:46;;;;;;;;;;;12.90;99.90;;;;;;8329059;28;20347;-71
2023/11/13 21:46:47;;;;;;;;;;;13.00;99.90;;;;;;8349227;28;19924;-71
2023/11/13 21:50:49;;;;;;;;;;;13.00;99.90;;;;;;8344920;28;19932;-71
2023/11/13 21:54:51;;;;;;;;;;;13.00;99.90;;;;;;8348291;28;19956;-71
2023/11/13 21:58:52;;;;;;;;;;;13.00;99.90;;;;;;8347735;28;19928;-71
2023/11/13 22:18:24;;;;;;;;;;;12.90;99.90;;;;;;8342851;28;19927;-71
2023/11/13 22:22:27;;;;;;;;;;;12.90;99.90;;;;;;8349286;28;19929;-71
2023/11/13 22:26:28;;;;;;;;;;;12.90;99.90;;;;;;8357013;28;19925;-71
2023/11/13 22:30:30;;;;;;;;;;;12.90;99.90;;;;;;8355702;28;19948;-71
2023/11/13 22:34:33;;;;;;;;;;;12.90;99.90;;;;;;8354353;28;19924;-71
2023/11/13 22:38:35;;;;;;;;;;;13.00;99.90;;;;;;8351773;28;19933;-71
2023/11/13 22:42:36;;;;;;;;;;;13.00;99.90;;;;;;8354229;28;20253;-71
2023/11/13 22:46:38;;;;;;;;;;;13.00;99.90;;;;;;8355402;28;19940;-71
2023/11/13 22:50:40;;;;;;;;;;;13.10;99.90;;;;;;8354487;28;19936;-71
2023/11/13 22:54:41;;;;;;;;;;;13.10;99.90;;;;;;8353837;28;20339;-71
2023/11/13 22:58:47;;;;;;;;;;;13.10;99.90;;;;;;8338223;28;20376;-71
2023/11/13 23:02:49;;;;;;;;;;;13.10;99.90;;;;;;8353162;28;19928;-71
2023/11/13 23:06:50;;;;;;;;;;;13.10;99.90;;;;;;8356591;28;20376;-71
2023/11/13 23:10:54;;;;;;;;;;;13.10;99.90;;;;;;8351974;28;20360;-71
2023/11/13 23:14:59;;;;;;;;;;;13.10;99.90;;;;;;8352964;28;19964;-70
2023/11/13 23:19:03;;;;;;;;;;;13.10;99.90;;;;;;8351426;28;19956;-70
2023/11/13 23:23:05;;;;;;;;;;;13.10;99.90;;;;;;8344600;28;19929;-71
2023/11/13 23:27:06;;;;;;;;;;;13.10;99.90;;;;;;8346280;28;19972;-71
2023/11/13 23:31:09;;;;;;;;;;;13.10;99.90;;;;;;8353274;28;20391;-71
2023/11/13 23:35:11;;;;;;;;;;;13.10;99.90;;;;;;8355082;28;19965;-71
2023/11/13 23:39:13;;;;;;;;;;;13.10;99.90;;;;;;8344243;28;19936;-71
2023/11/13 23:43:16;;;;;;;;;;;13.00;99.90;;;;;;8354788;28;19932;-71
2023/11/13 23:47:17;;;;;;;;;;;12.90;99.90;;;;;;8359190;28;19925;-71
2023/11/13 23:51:19;;;;;;;;;;;12.80;99.90;;;;;;8358533;28;19933;-71
2023/11/13 23:55:21;;;;;;;;;;;12.70;99.90;;;;;;8360635;28;19932;-71
2023/11/13 23:59:22;;;;;;;;;;;12.80;99.90;;;;;;8357651;28;19925;-71
